Time;durP1;ratioP1;P1;durP2;ratioP2;P2;SDS_P1;SDS_P2;PMS_P1;PMS_P2;Temp;Humidity;BMP_temperature;BMP_pressure;BME280_temperature;BME280_humidity;BME280_pressure;Samples;Min_cycle;Max_cycle;Signal;HPM_P1;HPM_P2
2021/05/22 00:00:00;;;;;;;8.02;1.55;;;10.90;72.40;;;;;;5056112;28;20453;-35
2021/05/22 00:02:26;;;;;;;6.43;1.30;;;10.80;72.70;;;;;;5056376;28;20053;-34
2021/05/22 00:04:52;;;;;;;4.68;1.23;;;10.90;72.40;;;;;;5056230;28;20060;-36
2021/05/22 00:07:18;;;;;;;4.43;1.40;;;10.80;72.70;;;;;;5055895;28;20032;-34
2021/05/22 00:09:45;;;;;;;2.55;1.25;;;10.80;72.80;;;;;;5056098;28;20075;-36
2021/05/22 00:12:11;;;;;;;5.15;1.70;;;10.80;73.10;;;;;;5055154;28;20049;-35
2021/05/22 00:14:38;;;;;;;3.38;0.95;;;10.80;73.30;;;;;;5056151;28;20032;-35
2021/05/22 00:17:04;;;;;;;9.18;1.73;;;10.80;72.90;;;;;;5056064;28;20033;-35
2021/05/22 00:19:30;;;;;;;7.35;1.27;;;10.80;72.90;;;;;;5055567;28;20025;-35
2021/05/22 00:21:55;;;;;;;5.20;1.40;;;10.80;73.10;;;;;;5055942;28;20021;-35
2021/05/22 00:24:21;;;;;;;10.55;3.17;;;10.70;73.00;;;;;;5055326;28;20431;-35
2021/05/22 00:26:47;;;;;;;4.93;1.05;;;10.80;72.50;;;;;;5055520;28;20033;-35
2021/05/22 00:29:12;;;;;;;5.75;1.52;;;10.80;72.50;;;;;;5055825;28;20021;-35
2021/05/22 00:31:38;;;;;;;8.93;1.48;;;10.80;72.80;;;;;;5055602;28;20381;-35
2021/05/22 00:34:04;;;;;;;6.07;1.67;;;10.80;72.30;;;;;;5054101;28;20029;-35
2021/05/22 00:36:29;;;;;;;5.00;1.35;;;10.70;72.70;;;;;;5055819;28;20029;-35
2021/05/22 00:38:55;;;;;;;2.65;1.75;;;10.80;72.00;;;;;;5055384;28;20032;-35
2021/05/22 00:41:20;;;;;;;5.05;1.33;;;10.80;72.10;;;;;;5055436;28;20367;-35
2021/05/22 00:43:46;;;;;;;9.07;1.92;;;10.70;72.20;;;;;;5055493;28;20032;-35
2021/05/22 00:46:12;;;;;;;4.82;1.65;;;10.70;72.50;;;;;;5055258;28;20028;-35
2021/05/22 00:48:38;;;;;;;7.72;1.77;;;10.70;72.30;;;;;;5055356;28;20319;-36
2021/05/22 00:51:04;;;;;;;5.70;1.30;;;10.70;72.00;;;;;;5055064;28;20147;-35
2021/05/22 00:53:30;;;;;;;3.75;1.48;;;10.70;72.10;;;;;;5055061;28;20060;-36
2021/05/22 00:55:59;;;;;;;2.70;1.20;;;10.70;71.20;;;;;;5055276;28;20036;-35
2021/05/22 00:58:25;;;;;;;5.27;1.53;;;10.80;71.10;;;;;;5054255;28;20032;-35
2021/05/22 01:00:52;;;;;;;6.25;1.90;;;10.80;70.80;;;;;;5054752;28;20643;-35
2021/05/22 01:03:21;;;;;;;3.60;1.65;;;10.70;71.50;;;;;;5055022;28;20053;-35
2021/05/22 01:05:47;;;;;;;8.15;1.60;;;10.70;70.40;;;;;;5054968;28;20057;-35
2021/05/22 01:08:25;;;;;;;4.43;1.48;;;10.70;70.20;;;;;;5054923;28;20092;-35
2021/05/22 01:11:00;;;;;;;6.55;1.52;;;10.70;69.90;;;;;;5055101;28;20045;-35
2021/05/22 01:13:34;;;;;;;5.00;1.35;;;10.60;70.10;;;;;;5054720;28;20408;-35
2021/05/22 01:16:00;;;;;;;3.25;1.35;;;10.60;69.80;;;;;;5054668;28;20025;-35
2021/05/22 01:18:27;;;;;;;5.82;1.10;;;10.60;70.10;;;;;;5054672;28;20028;-35
2021/05/22 01:20:55;;;;;;;8.23;1.40;;;10.60;69.70;;;;;;5054329;28;20385;-35
2021/05/22 01:23:32;;;;;;;4.75;1.25;;;10.50;70.30;;;;;;5054612;28;20025;-35
2021/05/22 01:25:58;;;;;;;3.95;1.17;;;10.40;70.30;;;;;;5054163;28;20048;-35
2021/05/22 01:28:24;;;;;;;4.28;1.52;;;10.40;70.10;;;;;;5054188;28;20021;-35
2021/05/22 01:30:50;;;;;;;4.93;1.30;;;10.40;69.40;;;;;;5054591;28;20496;-35
2021/05/22 01:33:19;;;;;;;2.20;0.73;;;10.50;69.40;;;;;;5054389;28;20037;-35
2021/05/22 01:35:45;;;;;;;3.90;1.30;;;10.40;69.00;;;;;;5054225;28;20101;-35
2021/05/22 01:38:11;;;;;;;4.60;1.25;;;10.50;68.40;;;;;;5052400;28;20052;-35
2021/05/22 01:40:37;;;;;;;2.40;1.38;;;10.60;67.90;;;;;;5054050;28;20536;-38
2021/05/22 01:43:05;;;;;;;3.42;1.05;;;10.60;67.90;;;;;;5054392;28;20021;-34
2021/05/22 01:45:34;;;;;;;7.25;1.38;;;10.50;68.00;;;;;;5054166;28;20029;-34
2021/05/22 01:48:02;;;;;;;6.82;1.10;;;10.50;68.40;;;;;;5054072;28;20389;-34
2021/05/22 01:50:31;;;;;;;4.72;1.13;;;10.40;68.40;;;;;;5053776;28;20024;-35
2021/05/22 01:52:58;;;;;;;4.35;0.90;;;10.50;68.60;;;;;;5054264;28;20045;-35
2021/05/22 01:55:27;;;;;;;2.30;0.70;;;10.40;68.80;;;;;;5052711;28;20093;-35
2021/05/22 01:57:53;;;;;;;3.38;1.50;;;10.40;68.70;;;;;;5054429;28;20028;-35
2021/05/22 02:00:20;;;;;;;3.53;1.20;;;10.30;69.30;;;;;;5053920;28;20021;-35
2021/05/22 02:03:09;;;;;;;2.38;0.88;;;10.30;69.80;;;;;;5054085;28;20484;-35
2021/05/22 02:05:36;;;;;;;2.88;1.00;;;10.20;70.50;;;;;;5053937;28;20488;-35
2021/05/22 02:08:06;;;;;;;1.00;0.82;;;10.20;70.90;;;;;;5054009;28;20104;-35
2021/05/22 02:10:32;;;;;;;6.65;1.13;;;10.10;71.40;;;;;;5054722;28;20469;-35
2021/05/22 02:12:59;;;;;;;8.80;1.15;;;10.10;71.90;;;;;;5053775;28;20103;-36
2021/05/22 02:15:27;;;;;;;3.95;1.27;;;10.10;72.10;;;;;;5053685;28;20529;-36
2021/05/22 02:18:04;;;;;;;5.80;1.00;;;10.10;72.20;;;;;;5059706;28;20029;-34
2021/05/22 02:20:32;;;;;;;3.10;1.13;;;10.20;71.80;;;;;;5053742;28;20029;-37
2021/05/22 02:23:00;;;;;;;3.60;1.10;;;10.10;71.70;;;;;;5053471;28;20099;-38
2021/05/22 02:25:26;;;;;;;4.43;1.80;;;10.10;72.10;;;;;;5053670;28;20029;-37
2021/05/22 02:27:53;;;;;;;2.50;0.95;;;10.20;71.60;;;;;;5055090;28;20036;-35
2021/05/22 02:30:19;;;;;;;3.17;1.23;;;10.20;71.70;;;;;;5053431;28;20389;-35
2021/05/22 02:32:49;;;;;;;4.97;1.00;;;10.30;71.40;;;;;;5053282;28;20430;-35
2021/05/22 02:35:18;;;;;;;6.07;1.02;;;10.20;71.40;;;;;;5055900;28;20021;-37
2021/05/22 02:37:47;;;;;;;5.20;1.17;;;10.30;71.10;;;;;;5053541;28;20028;-36
2021/05/22 02:40:16;;;;;;;3.20;1.30;;;10.30;70.90;;;;;;5053167;28;20036;-35
2021/05/22 02:42:47;;;;;;;10.38;1.60;;;10.30;70.40;;;;;;5053109;28;20020;-42
2021/05/22 02:45:14;;;;;;;7.57;1.27;;;10.30;70.50;;;;;;5053160;28;20028;-36
2021/05/22 02:47:44;;;;;;;5.97;0.93;;;10.40;70.00;;;;;;5052898;28;20033;-35
2021/05/22 02:50:11;;;;;;;3.97;1.30;;;10.40;70.00;;;;;;5053050;28;20025;-35
2021/05/22 02:52:38;;;;;;;3.97;1.50;;;10.40;70.00;;;;;;5052923;28;20459;-36
2021/05/22 02:55:09;;;;;;;7.88;2.10;;;10.50;69.80;;;;;;5053281;28;20029;-35
2021/05/22 02:57:37;;;;;;;3.30;0.75;;;10.50;69.40;;;;;;5053269;28;20064;-35
2021/05/22 03:00:04;;;;;;;4.68;0.85;;;10.50;69.60;;;;;;5052872;28;20453;-35
2021/05/22 03:02:30;;;;;;;3.22;1.27;;;10.50;69.30;;;;;;5053152;28;20054;-34
2021/05/22 03:04:57;;;;;;;7.70;2.58;;;10.60;69.30;;;;;;5052937;28;20021;-34
2021/05/22 03:07:22;;;;;;;1.80;0.85;;;10.60;69.00;;;;;;5053171;28;20025;-34
2021/05/22 03:09:49;;;;;;;3.63;0.80;;;10.50;69.30;;;;;;5053095;28;20040;-34
2021/05/22 03:12:19;;;;;;;11.98;1.90;;;10.60;69.30;;;;;;5053151;28;20033;-34
2021/05/22 03:14:45;;;;;;;7.70;1.25;;;10.60;69.10;;;;;;5052035;28;20025;-34
2021/05/22 03:17:10;;;;;;;8.70;1.42;;;10.60;69.30;;;;;;5052828;28;20353;-34
2021/05/22 03:19:36;;;;;;;5.82;1.20;;;10.60;69.40;;;;;;5051397;28;20106;-35
2021/05/22 03:22:02;;;;;;;1.95;0.63;;;10.60;69.50;;;;;;5052700;28;20025;-35
2021/05/22 03:24:27;;;;;;;11.82;1.20;;;10.60;69.00;;;;;;5051573;28;20028;-35
2021/05/22 03:26:53;;;;;;;4.13;1.13;;;10.60;69.20;;;;;;5052790;28;20077;-35
2021/05/22 03:29:19;;;;;;;2.00;1.17;;;10.60;69.30;;;;;;5051397;28;20045;-35
2021/05/22 03:31:45;;;;;;;6.68;0.98;;;10.70;69.00;;;;;;5052904;28;20385;-35
2021/05/22 03:34:10;;;;;;;0.50;0.40;;;10.70;68.70;;;;;;5052915;28;20060;-35
2021/05/22 03:36:36;;;;;;;4.38;1.10;;;10.70;68.80;;;;;;5052710;28;20064;-36
2021/05/22 03:39:03;;;;;;;0.98;0.70;;;10.70;68.70;;;;;;5052983;28;20029;-36
2021/05/22 03:41:29;;;;;;;3.95;1.10;;;10.70;68.60;;;;;;5052402;28;20086;-36
2021/05/22 03:43:55;;;;;;;8.48;1.40;;;10.70;68.70;;;;;;5052875;28;20462;-36
2021/05/22 03:46:20;;;;;;;5.65;1.50;;;10.80;68.20;;;;;;5052640;28;20350;-36
2021/05/22 03:48:46;;;;;;;5.60;1.05;;;10.80;68.40;;;;;;5051238;28;20025;-36
2021/05/22 03:51:12;;;;;;;4.70;0.98;;;10.80;68.60;;;;;;5052528;28;20382;-36
2021/05/22 03:53:38;;;;;;;6.45;1.50;;;10.70;68.60;;;;;;5052409;28;20040;-36
2021/05/22 03:56:04;;;;;;;4.57;1.30;;;10.70;68.50;;;;;;5052613;28;20029;-36
2021/05/22 03:58:29;;;;;;;4.57;1.02;;;10.80;68.50;;;;;;5052740;28;20060;-34
2021/05/22 04:00:55;;;;;;;7.07;1.13;;;10.80;68.80;;;;;;5054450;28;20426;-36
2021/05/22 04:03:22;;;;;;;1.63;0.70;;;10.80;68.50;;;;;;5056141;28;20473;-36
2021/05/22 04:05:48;;;;;;;5.25;1.38;;;10.80;68.70;;;;;;5055796;28;20056;-34
2021/05/22 04:08:14;;;;;;;4.88;1.13;;;10.80;68.40;;;;;;5055831;28;20021;-35
2021/05/22 04:10:39;;;;;;;1.10;1.00;;;10.80;68.70;;;;;;5055986;28;20113;-34
2021/05/22 04:13:05;;;;;;;4.07;1.20;;;10.80;68.70;;;;;;5055764;28;20436;-36
2021/05/22 04:15:31;;;;;;;5.75;1.15;;;10.80;68.40;;;;;;5055808;28;20025;-34
2021/05/22 04:17:56;;;;;;;3.95;1.13;;;10.80;68.50;;;;;;5055612;28;20031;-34
2021/05/22 04:20:23;;;;;;;3.05;1.52;;;10.80;68.70;;;;;;5055569;28;20428;-34
2021/05/22 04:22:48;;;;;;;5.50;1.25;;;10.80;68.50;;;;;;5055632;28;20488;-34
2021/05/22 04:25:14;;;;;;;6.10;1.15;;;10.80;68.70;;;;;;5055586;28;20048;-34
2021/05/22 04:27:41;;;;;;;6.50;1.30;;;10.80;68.70;;;;;;5055714;28;20056;-35
2021/05/22 04:30:07;;;;;;;7.32;1.38;;;10.80;69.00;;;;;;5055416;28;20436;-35
2021/05/22 04:32:32;;;;;;;5.35;0.90;;;10.80;68.70;;;;;;5055453;28;20040;-35
2021/05/22 04:34:58;;;;;;;5.28;1.20;;;10.80;68.40;;;;;;5055875;28;20066;-35
2021/05/22 04:37:24;;;;;;;4.97;1.77;;;10.80;68.60;;;;;;5055326;28;20071;-34
2021/05/22 04:39:49;;;;;;;5.55;1.63;;;10.80;68.30;;;;;;5055184;28;20029;-34
2021/05/22 04:42:16;;;;;;;4.97;0.88;;;10.80;68.50;;;;;;5055287;28;20028;-35
2021/05/22 04:44:42;;;;;;;5.63;1.35;;;10.80;68.60;;;;;;5055572;28;20115;-35
2021/05/22 04:47:07;;;;;;;6.72;1.15;;;10.80;68.70;;;;;;5055249;28;20053;-35
2021/05/22 04:49:33;;;;;;;8.77;1.48;;;10.90;68.80;;;;;;5053913;28;20075;-35
2021/05/22 04:51:58;;;;;;;6.38;1.67;;;10.80;68.80;;;;;;5054817;28;20045;-35
2021/05/22 04:54:25;;;;;;;3.00;1.05;;;10.90;68.40;;;;;;5055226;28;20045;-35
2021/05/22 04:56:51;;;;;;;5.93;1.17;;;10.90;68.70;;;;;;5055258;28;20028;-35
2021/05/22 04:59:18;;;;;;;6.63;1.83;;;10.90;68.60;;;;;;5055168;28;20476;-35
2021/05/22 05:01:43;;;;;;;5.30;0.98;;;10.80;69.10;;;;;;5055133;28;20029;-35
2021/05/22 05:04:09;;;;;;;9.98;2.08;;;10.90;68.70;;;;;;5054925;28;20021;-35
2021/05/22 05:06:35;;;;;;;6.60;1.50;;;10.80;69.00;;;;;;5054900;28;20021;-35
2021/05/22 05:09:01;;;;;;;4.25;1.20;;;10.90;69.10;;;;;;5054809;28;20024;-35
2021/05/22 05:11:29;;;;;;;6.90;1.33;;;10.80;69.50;;;;;;5054583;28;20024;-35
2021/05/22 05:13:55;;;;;;;2.72;1.02;;;10.80;69.60;;;;;;5054675;28;20366;-35
2021/05/22 05:16:21;;;;;;;6.47;1.38;;;10.80;69.60;;;;;;5054916;28;20036;-35
2021/05/22 05:18:46;;;;;;;5.47;1.40;;;10.90;69.80;;;;;;5054576;28;20044;-35
2021/05/22 05:21:12;;;;;;;6.38;1.17;;;10.90;69.80;;;;;;5054476;28;20033;-35
2021/05/22 05:23:38;;;;;;;7.70;1.40;;;10.90;69.50;;;;;;5054397;28;20093;-35
2021/05/22 05:26:04;;;;;;;7.00;1.48;;;11.00;69.70;;;;;;5054399;28;20467;-35
2021/05/22 05:28:30;;;;;;;3.78;1.27;;;11.10;69.20;;;;;;5054683;28;20114;-35
2021/05/22 05:30:56;;;;;;;5.93;1.50;;;11.00;69.70;;;;;;5054878;28;20149;-35
2021/05/22 05:33:22;;;;;;;5.15;1.48;;;11.00;69.80;;;;;;5054546;28;20058;-35
2021/05/22 05:35:49;;;;;;;10.18;1.83;;;11.20;69.30;;;;;;5054461;28;20025;-35
2021/05/22 05:38:18;;;;;;;8.15;1.35;;;11.10;69.50;;;;;;5054175;28;20031;-35
2021/05/22 05:40:44;;;;;;;4.07;1.15;;;11.20;69.40;;;;;;5054530;28;20090;-35
2021/05/22 05:43:11;;;;;;;5.50;1.23;;;11.10;69.60;;;;;;5054066;28;20021;-35
2021/05/22 05:45:40;;;;;;;8.40;1.17;;;11.20;69.40;;;;;;5054510;28;20029;-35
2021/05/22 05:48:06;;;;;;;6.68;2.63;;;11.30;68.80;;;;;;5054279;28;20025;-35
2021/05/22 05:50:32;;;;;;;2.20;0.95;;;11.30;69.00;;;;;;5052825;28;20420;-35
2021/05/22 05:52:58;;;;;;;12.10;2.10;;;11.20;68.40;;;;;;5054330;28;20132;-35
2021/05/22 05:55:24;;;;;;;5.55;1.50;;;11.30;68.30;;;;;;5054389;28;20052;-35
2021/05/22 05:57:51;;;;;;;6.47;2.08;;;11.30;68.30;;;;;;5054081;28;20028;-35
2021/05/22 06:00:17;;;;;;;4.43;1.50;;;11.30;68.40;;;;;;5054214;28;20028;-35
2021/05/22 06:02:42;;;;;;;6.25;1.15;;;11.30;68.30;;;;;;5052510;28;20021;-35
2021/05/22 06:05:08;;;;;;;7.75;1.23;;;11.30;68.10;;;;;;5053674;28;20032;-35
2021/05/22 06:07:34;;;;;;;8.82;1.65;;;11.30;67.60;;;;;;5053536;28;20457;-35
2021/05/22 06:10:00;;;;;;;10.02;2.10;;;11.30;67.40;;;;;;5053967;28;20052;-36
2021/05/22 06:12:27;;;;;;;11.93;1.23;;;11.40;67.00;;;;;;5053119;28;20108;-35
2021/05/22 06:14:56;;;;;;;7.85;2.28;;;11.30;67.60;;;;;;5051593;28;20048;-35
2021/05/22 06:17:23;;;;;;;4.68;1.52;;;11.30;68.30;;;;;;5053772;28;20029;-35
2021/05/22 06:19:49;;;;;;;12.15;1.90;;;11.20;67.70;;;;;;5053200;28;20029;-35
2021/05/22 06:22:14;;;;;;;7.78;1.67;;;11.30;68.00;;;;;;5053454;28;20025;-36
2021/05/22 06:24:40;;;;;;;7.38;2.28;;;11.30;68.20;;;;;;5051794;28;20112;-35
2021/05/22 06:27:06;;;;;;;5.50;1.50;;;11.30;67.30;;;;;;5053460;28;20031;-36
2021/05/22 06:29:32;;;;;;;10.77;1.98;;;11.30;68.40;;;;;;5053046;28;20021;-35
2021/05/22 06:31:57;;;;;;;6.32;1.13;;;11.30;68.90;;;;;;5053153;28;20021;-35
2021/05/22 06:34:24;;;;;;;2.13;0.85;;;11.20;70.00;;;;;;5053197;28;20035;-35
2021/05/22 06:36:50;;;;;;;4.65;1.20;;;11.10;70.10;;;;;;5053213;28;20082;-35
2021/05/22 06:39:16;;;;;;;7.88;1.60;;;11.10;69.80;;;;;;5051808;28;20021;-35
2021/05/22 06:41:42;;;;;;;12.60;2.40;;;11.10;70.00;;;;;;5053005;28;20473;-36
2021/05/22 06:44:11;;;;;;;2.85;1.40;;;11.20;70.40;;;;;;5053278;28;20017;-36
2021/05/22 06:49:03;;;;;;;3.70;1.40;;;11.00;70.90;;;;;;5053205;28;20112;-37
2021/05/22 06:51:28;;;;;;;8.45;1.85;;;11.10;71.10;;;;;;5052708;28;20053;-37
2021/05/22 06:53:54;;;;;;;4.78;1.00;;;11.20;71.40;;;;;;5052857;28;20025;-36
2021/05/22 06:56:20;;;;;;;7.88;1.48;;;11.20;71.10;;;;;;5052969;28;20327;-36
2021/05/22 06:58:46;;;;;;;9.45;1.88;;;11.10;72.00;;;;;;5051732;28;20078;-36
2021/05/22 07:01:11;;;;;;;6.50;2.00;;;10.90;72.50;;;;;;5052850;28;20028;-37
2021/05/22 07:03:37;;;;;;;9.23;1.20;;;10.80;73.50;;;;;;5052902;28;20029;-37
2021/05/22 07:06:03;;;;;;;8.07;1.70;;;10.80;74.30;;;;;;5053077;28;20021;-37
2021/05/22 07:08:29;;;;;;;6.07;1.35;;;10.80;74.00;;;;;;5052885;28;20029;-37
2021/05/22 07:10:55;;;;;;;4.75;1.25;;;10.80;73.80;;;;;;5053358;28;20021;-37
2021/05/22 07:13:22;;;;;;;3.78;0.90;;;10.80;73.50;;;;;;5052743;28;20029;-37
2021/05/22 07:15:48;;;;;;;13.30;2.10;;;10.90;73.20;;;;;;5052965;28;20025;-37
2021/05/22 07:18:14;;;;;;;8.98;1.25;;;10.90;73.00;;;;;;5052639;28;20051;-37
2021/05/22 07:20:39;;;;;;;4.40;1.42;;;10.80;73.30;;;;;;5052950;28;20021;-37
2021/05/22 07:23:05;;;;;;;5.45;1.90;;;10.90;73.60;;;;;;5052791;28;20385;-37
2021/05/22 07:25:31;;;;;;;7.03;1.05;;;11.00;73.60;;;;;;5052731;28;20017;-37
2021/05/22 07:27:57;;;;;;;5.43;1.90;;;11.00;73.90;;;;;;5052945;28;20127;-37
2021/05/22 07:30:23;;;;;;;2.75;1.13;;;11.00;73.70;;;;;;5051286;28;20037;-36
2021/05/22 07:32:48;;;;;;;11.65;2.53;;;11.10;72.90;;;;;;5053596;28;20048;-37
2021/05/22 07:35:15;;;;;;;5.68;1.02;;;11.10;73.10;;;;;;5053715;28;20029;-36
2021/05/22 07:37:41;;;;;;;9.85;2.05;;;11.10;72.50;;;;;;5056567;28;20036;-37
2021/05/22 07:40:09;;;;;;;2.85;1.30;;;11.10;72.50;;;;;;5054456;28;20028;-36
2021/05/22 07:42:35;;;;;;;10.80;1.52;;;11.10;72.00;;;;;;5056145;28;20028;-36
2021/05/22 07:45:01;;;;;;;7.95;1.90;;;11.20;72.50;;;;;;5056652;28;20414;-36
2021/05/22 07:47:26;;;;;;;4.38;1.25;;;11.10;73.10;;;;;;5056694;28;20029;-36
2021/05/22 07:49:52;;;;;;;6.28;1.45;;;11.10;73.10;;;;;;5056617;28;20120;-36
2021/05/22 07:52:19;;;;;;;4.38;1.77;;;10.90;73.90;;;;;;5056200;28;20152;-36
2021/05/22 07:54:46;;;;;;;6.22;1.35;;;10.80;75.00;;;;;;5056152;28;20045;-38
2021/05/22 07:57:14;;;;;;;4.05;1.27;;;10.70;75.80;;;;;;5056336;28;20028;-36
2021/05/22 07:59:40;;;;;;;4.65;1.75;;;10.60;77.20;;;;;;5055930;28;20158;-36
2021/05/22 08:02:07;;;;;;;6.47;1.90;;;10.50;78.40;;;;;;5055914;28;20024;-37
2021/05/22 08:04:33;;;;;;;3.80;1.33;;;10.60;78.80;;;;;;5056518;28;20021;-35
2021/05/22 08:07:00;;;;;;;5.53;1.27;;;10.60;78.70;;;;;;5055999;28;20366;-37
2021/05/22 08:09:25;;;;;;;7.43;1.10;;;10.50;78.60;;;;;;5056565;28;20025;-36
2021/05/22 08:11:52;;;;;;;5.78;2.00;;;10.30;80.50;;;;;;5054827;28;20029;-36
2021/05/22 08:14:20;;;;;;;0.73;0.73;;;10.20;80.50;;;;;;5055910;28;20463;-36
2021/05/22 08:16:46;;;;;;;6.13;1.65;;;10.20;81.10;;;;;;5055638;28;20037;-36
2021/05/22 08:19:13;;;;;;;6.97;1.48;;;10.10;83.30;;;;;;5055617;28;20033;-36
2021/05/22 08:21:39;;;;;;;7.60;1.13;;;10.10;83.10;;;;;;5056078;28;20039;-35
2021/05/22 08:24:06;;;;;;;5.20;1.60;;;10.30;81.70;;;;;;5055906;28;20029;-35
2021/05/22 08:26:32;;;;;;;2.42;0.75;;;10.30;82.50;;;;;;5055410;28;20039;-37
2021/05/22 08:28:59;;;;;;;12.40;2.17;;;10.30;82.50;;;;;;5053946;28;20033;-36
2021/05/22 08:31:25;;;;;;;3.03;1.15;;;10.30;83.00;;;;;;5054237;28;20457;-37
2021/05/22 08:33:50;;;;;;;2.33;1.30;;;10.30;81.90;;;;;;5055262;28;20128;-36
2021/05/22 08:36:16;;;;;;;7.40;1.55;;;10.30;82.70;;;;;;5055276;28;20041;-37
2021/05/22 08:38:43;;;;;;;9.13;2.20;;;10.30;83.00;;;;;;5055271;28;20032;-37
2021/05/22 08:41:09;;;;;;;6.32;1.08;;;10.50;82.50;;;;;;5055390;28;20028;-37
2021/05/22 08:43:35;;;;;;;6.95;1.60;;;10.60;83.10;;;;;;5055144;28;20021;-37
2021/05/22 08:46:01;;;;;;;7.22;1.35;;;10.50;83.10;;;;;;5055109;28;20039;-36
2021/05/22 08:48:27;;;;;;;6.03;1.40;;;10.60;82.60;;;;;;5055102;28;20039;-36
2021/05/22 08:50:53;;;;;;;3.95;1.45;;;10.50;83.30;;;;;;5055236;28;20053;-45
2021/05/22 08:53:21;;;;;;;4.30;1.38;;;10.50;81.50;;;;;;5055704;28;20108;-36
2021/05/22 08:55:47;;;;;;;7.30;2.70;;;10.40;81.70;;;;;;5055079;28;20033;-36
2021/05/22 08:58:14;;;;;;;5.88;2.13;;;10.40;82.10;;;;;;5053408;28;20036;-36
2021/05/22 09:00:40;;;;;;;2.45;1.38;;;10.50;81.60;;;;;;5054871;28;20024;-36
2021/05/22 09:03:07;;;;;;;3.88;1.65;;;10.60;81.60;;;;;;5054884;28;20033;-37
2021/05/22 09:05:33;;;;;;;5.45;1.30;;;10.60;81.40;;;;;;5055117;28;20040;-36
2021/05/22 09:08:01;;;;;;;4.45;0.93;;;10.60;81.30;;;;;;5054970;28;20025;-37
2021/05/22 09:10:34;;;;;;;3.03;0.80;;;10.70;80.80;;;;;;5054513;28;20078;-36
2021/05/22 09:13:06;;;;;;;3.60;0.98;;;10.70;81.60;;;;;;5055110;28;20111;-36
2021/05/22 09:15:41;;;;;;;4.68;1.25;;;10.70;82.30;;;;;;5054358;28;20126;-37
2021/05/22 09:18:13;;;;;;;8.13;2.08;;;10.80;81.70;;;;;;5054500;28;20036;-36
2021/05/22 09:20:48;;;;;;;6.25;1.73;;;10.80;81.70;;;;;;5055049;28;20032;-37
2021/05/22 09:23:17;;;;;;;4.55;0.85;;;10.70;82.10;;;;;;5054926;28;20017;-36
2021/05/22 09:25:45;;;;;;;6.05;2.28;;;10.70;82.20;;;;;;5053073;28;20377;-37
2021/05/22 09:28:12;;;;;;;5.03;1.55;;;10.80;82.30;;;;;;5054403;28;20099;-37
2021/05/22 09:30:41;;;;;;;7.63;1.20;;;10.80;81.30;;;;;;5053340;28;20035;-37
2021/05/22 09:33:38;;;;;;;9.35;1.55;;;11.00;81.20;;;;;;5053131;28;20032;-37
2021/05/22 09:36:11;;;;;;;10.65;1.55;;;11.20;80.40;;;;;;5054629;28;20033;-37
2021/05/22 09:38:38;;;;;;;9.48;1.10;;;11.30;79.60;;;;;;5055100;28;20028;-37
2021/05/22 09:41:17;;;;;;;5.60;1.52;;;11.30;79.30;;;;;;5054337;28;20021;-37
2021/05/22 09:44:10;;;;;;;7.75;1.65;;;11.10;79.70;;;;;;5054512;28;20035;-36
2021/05/22 09:46:37;;;;;;;4.43;1.25;;;11.30;80.80;;;;;;5054339;28;20024;-38
2021/05/22 09:49:07;;;;;;;4.65;1.30;;;11.10;80.60;;;;;;5054397;28;20017;-36
2021/05/22 09:51:35;;;;;;;3.65;1.00;;;11.20;80.80;;;;;;5053777;28;20379;-41
2021/05/22 09:54:00;;;;;;;7.97;1.75;;;11.20;81.30;;;;;;5035811;28;20060;-36
2021/05/22 09:56:27;;;;;;;9.93;1.77;;;11.30;80.70;;;;;;5053704;28;20064;-35
2021/05/22 09:58:57;;;;;;;12.23;1.98;;;11.30;81.30;;;;;;5053387;28;20024;-35
2021/05/22 10:01:30;;;;;;;9.43;1.27;;;11.40;80.00;;;;;;5053637;28;20060;-36
2021/05/22 10:04:14;;;;;;;5.50;2.42;;;11.20;80.70;;;;;;5053990;28;20025;-36
2021/05/22 10:06:40;;;;;;;7.03;2.40;;;11.20;80.10;;;;;;5053925;28;20473;-37
2021/05/22 10:09:17;;;;;;;4.07;1.77;;;11.10;80.50;;;;;;5053840;28;20479;-36
2021/05/22 10:12:03;;;;;;;4.18;1.40;;;11.00;81.10;;;;;;5053963;28;20065;-35
2021/05/22 10:14:40;;;;;;;6.47;1.60;;;11.10;80.60;;;;;;5052091;28;20384;-37
2021/05/22 10:17:08;;;;;;;2.30;1.50;;;11.30;81.30;;;;;;5053453;28;20028;-36
2021/05/22 10:19:36;;;;;;;7.45;1.85;;;11.20;80.90;;;;;;5053627;28;20020;-36
2021/05/22 10:22:03;;;;;;;3.00;1.50;;;11.10;80.50;;;;;;5052136;28;20032;-36
2021/05/22 10:24:29;;;;;;;13.48;3.53;;;11.10;80.50;;;;;;5053553;28;20427;-39
2021/05/22 10:26:56;;;;;;;7.50;2.30;;;11.10;81.30;;;;;;5053426;28;20103;-37
2021/05/22 10:29:23;;;;;;;8.23;1.80;;;11.20;81.20;;;;;;5053646;28;20491;-37
2021/05/22 10:31:50;;;;;;;6.07;1.52;;;11.20;80.80;;;;;;5053190;28;20025;-37
2021/05/22 10:34:22;;;;;;;4.72;1.38;;;11.20;81.00;;;;;;5053400;28;20377;-36
2021/05/22 10:36:51;;;;;;;9.73;1.70;;;11.10;80.10;;;;;;5053204;28;20059;-36
2021/05/22 10:39:43;;;;;;;3.47;1.38;;;11.10;80.50;;;;;;5053059;28;20061;-36
2021/05/22 10:42:21;;;;;;;6.05;1.88;;;11.20;80.50;;;;;;5053124;28;20389;-36
2021/05/22 10:44:47;;;;;;;3.05;1.58;;;11.30;80.70;;;;;;5053248;28;20033;-36
2021/05/22 10:47:14;;;;;;;4.45;1.30;;;11.30;80.70;;;;;;5053102;28;20021;-37
2021/05/22 10:49:51;;;;;;;3.88;1.95;;;11.30;80.50;;;;;;5052905;28;20024;-36
2021/05/22 10:52:26;;;;;;;3.40;0.82;;;11.30;80.60;;;;;;5051407;28;20131;-36
2021/05/22 10:55:10;;;;;;;3.80;1.00;;;11.20;80.60;;;;;;5052847;28;20055;-36
2021/05/22 10:57:42;;;;;;;3.25;1.50;;;11.20;80.60;;;;;;5052550;28;20036;-37
2021/05/22 11:00:17;;;;;;;5.53;1.23;;;11.10;81.10;;;;;;5052802;28;20575;-36
2021/05/22 11:02:45;;;;;;;10.70;1.88;;;11.20;81.00;;;;;;5052788;28;20033;-35
2021/05/22 11:05:26;;;;;;;5.75;1.88;;;11.10;81.80;;;;;;5052619;28;20021;-37
2021/05/22 11:08:06;;;;;;;3.28;1.83;;;11.10;82.10;;;;;;5051740;28;20392;-37
2021/05/22 11:10:44;;;;;;;5.55;1.25;;;11.00;83.30;;;;;;5054413;28;20064;-37
2021/05/22 11:13:22;;;;;;;7.88;2.35;;;11.00;83.40;;;;;;5056306;28;20403;-36
2021/05/22 11:15:56;;;;;;;4.57;1.10;;;10.80;84.70;;;;;;5056714;28;20104;-37
2021/05/22 11:18:34;;;;;;;12.45;2.05;;;10.80;84.90;;;;;;5056383;28;20033;-36
2021/05/22 11:21:19;;;;;;;3.65;1.77;;;10.80;84.90;;;;;;5055138;28;20040;-38
2021/05/22 11:23:57;;;;;;;6.82;1.73;;;10.80;85.50;;;;;;5056897;28;20098;-36
2021/05/22 11:26:57;;;;;;;9.88;1.83;;;10.90;85.10;;;;;;5056690;28;20104;-36
2021/05/22 11:29:54;;;;;;;4.43;1.98;;;10.80;85.70;;;;;;5055286;28;20056;-37
2021/05/22 11:33:01;;;;;;;5.70;1.80;;;10.90;85.50;;;;;;5056432;28;20095;-37
2021/05/22 11:35:27;;;;;;;4.47;1.70;;;10.80;86.30;;;;;;5045390;28;20431;-37
2021/05/22 11:37:54;;;;;;;7.45;2.50;;;10.90;86.10;;;;;;5056311;28;20029;-37
2021/05/22 11:40:35;;;;;;;12.18;3.53;;;10.90;86.40;;;;;;5055162;28;20048;-36
2021/05/22 11:43:22;;;;;;;4.43;1.90;;;10.80;86.90;;;;;;5055433;28;20021;-36
2021/05/22 11:45:54;;;;;;;4.90;2.45;;;10.80;86.90;;;;;;5055125;28;20025;-37
2021/05/22 11:48:27;;;;;;;5.57;2.28;;;10.80;87.40;;;;;;5056651;28;20026;-37
2021/05/22 11:51:15;;;;;;;6.13;2.38;;;10.80;87.60;;;;;;5056367;28;20041;-37
2021/05/22 11:53:43;;;;;;;4.40;1.77;;;10.80;86.10;;;;;;5055825;28;20057;-36
2021/05/22 11:56:13;;;;;;;4.05;1.83;;;10.90;86.70;;;;;;5056280;28;20033;-36
2021/05/22 11:58:41;;;;;;;5.40;2.55;;;10.80;86.90;;;;;;5055991;28;20029;-36
2021/05/22 12:01:22;;;;;;;7.40;2.70;;;10.90;87.40;;;;;;5056023;28;20032;-36
2021/05/22 12:03:55;;;;;;;10.45;2.25;;;11.10;87.50;;;;;;5056135;28;20358;-37
2021/05/22 12:06:36;;;;;;;14.80;4.28;;;11.00;86.20;;;;;;5056648;28;20108;-38
2021/05/22 12:09:15;;;;;;;8.80;3.03;;;11.00;87.20;;;;;;5056352;28;20021;-37
2021/05/22 12:11:53;;;;;;;7.22;2.60;;;10.90;87.40;;;;;;5054730;28;20036;-36
2021/05/22 12:14:19;;;;;;;7.78;2.80;;;11.00;87.60;;;;;;5054637;28;20033;-38
2021/05/22 12:16:45;;;;;;;12.85;2.92;;;10.90;87.90;;;;;;5055632;28;20021;-37
2021/05/22 12:19:18;;;;;;;12.45;3.97;;;10.90;88.80;;;;;;5054380;28;20036;-36
2021/05/22 12:21:49;;;;;;;8.38;3.35;;;10.90;87.10;;;;;;5053508;28;20082;-36
2021/05/22 12:24:16;;;;;;;16.08;3.20;;;11.00;88.10;;;;;;5055620;28;20025;-36
2021/05/22 12:26:56;;;;;;;10.63;3.40;;;10.90;88.20;;;;;;5055966;28;20568;-36
2021/05/22 12:29:26;;;;;;;9.18;3.67;;;11.00;88.60;;;;;;5054413;28;20032;-36
2021/05/22 12:31:53;;;;;;;;;;;11.00;88.00;;;;;;5056185;28;20528;-37
2021/05/22 12:34:29;;;;;;;12.43;3.60;;;11.00;88.50;;;;;;5056193;28;19911;-37
2021/05/22 12:37:03;;;;;;;10.57;3.83;;;11.00;88.70;;;;;;5055501;28;20025;-37
2021/05/22 12:39:43;;;;;;;12.75;3.88;;;10.80;89.20;;;;;;5055951;28;20431;-37
2021/05/22 12:42:29;;;;;;;9.77;4.00;;;10.80;89.00;;;;;;5055626;28;20503;-36
2021/05/22 12:45:16;;;;;;;5.32;3.00;;;10.80;89.40;;;;;;5055787;28;20500;-35
2021/05/22 12:47:50;;;;;;;8.02;3.92;;;10.80;90.40;;;;;;5055225;28;20032;-37
2021/05/22 12:50:24;;;;;;;6.10;3.00;;;10.80;89.10;;;;;;5055550;28;20070;-36
2021/05/22 12:52:55;;;;;;;11.25;4.78;;;10.80;89.60;;;;;;5055180;28;20049;-35
2021/05/22 12:55:26;;;;;;;10.57;4.78;;;10.80;90.00;;;;;;5053595;28;20029;-35